createdAt,value
2023-03-26T00:03:03.246Z,17.13
2023-03-26T00:07:05.102Z,18.27
2023-03-26T00:11:08.743Z,18.87
2023-03-26T00:15:10.497Z,20.87
2023-03-26T00:19:12.596Z,16.57
2023-03-26T00:23:14.069Z,16.57
2023-03-26T00:27:15.381Z,18.37
2023-03-26T00:31:17.542Z,17.10
2023-03-26T00:35:19.000Z,19.87
2023-03-26T00:39:21.754Z,17.60
2023-03-26T00:43:23.658Z,22.10
2023-03-26T00:47:26.172Z,17.10
2023-03-26T00:51:28.578Z,19.43
2023-03-26T00:55:30.028Z,16.90
2023-03-26T00:59:31.874Z,15.80
2023-03-26T01:03:35.765Z,14.93
2023-03-26T01:07:37.381Z,13.80
2023-03-26T01:11:38.784Z,21.07
2023-03-26T01:15:41.808Z,19.30
2023-03-26T01:20:19.237Z,20.50
2023-03-26T01:24:22.012Z,15.43
2023-03-26T01:28:25.244Z,20.37
2023-03-26T01:33:14.256Z,19.23
2023-03-26T01:37:52.994Z,14.17
2023-03-26T01:42:02.775Z,21.00
2023-03-26T01:46:08.452Z,18.93
2023-03-26T01:50:10.482Z,16.10
2023-03-26T01:54:19.760Z,19.83
2023-03-26T01:58:43.176Z,13.63
2023-03-26T02:03:08.844Z,18.70
2023-03-26T02:07:20.997Z,17.77
2023-03-26T02:11:23.294Z,18.10
2023-03-26T02:15:25.031Z,19.30
2023-03-26T02:19:26.697Z,18.87
2023-03-26T02:23:29.575Z,18.20
2023-03-26T02:27:31.026Z,11.67
2023-03-26T02:31:32.429Z,18.93
2023-03-26T02:35:33.929Z,18.27
2023-03-26T02:39:36.232Z,16.53
2023-03-26T02:43:37.525Z,15.23
2023-03-26T02:47:39.132Z,15.97
2023-03-26T02:51:40.718Z,14.03
2023-03-26T02:55:42.081Z,17.77
2023-03-26T02:59:46.279Z,10.93
2023-03-26T03:03:47.646Z,11.77
2023-03-26T03:07:49.047Z,12.70
2023-03-26T03:11:53.840Z,11.60
2023-03-26T03:15:56.101Z,10.97
2023-03-26T03:19:57.951Z,10.57
2023-03-26T03:23:59.758Z,23.37
2023-03-26T03:28:02.378Z,18.60
2023-03-26T03:32:03.961Z,12.80
2023-03-26T03:36:10.463Z,11.83
2023-03-26T03:40:21.691Z,9.60
2023-03-26T03:44:23.193Z,15.90
2023-03-26T03:48:24.598Z,14.10
2023-03-26T03:52:27.930Z,12.10
2023-03-26T03:56:29.292Z,11.53
2023-03-26T04:00:30.654Z,10.60
2023-03-26T04:04:32.900Z,13.93
2023-03-26T04:08:34.867Z,14.23
2023-03-26T04:12:36.329Z,14.67
2023-03-26T04:16:37.894Z,15.10
2023-03-26T04:20:46.645Z,11.73
2023-03-26T04:24:49.609Z,14.17
2023-03-26T04:28:56.644Z,13.13
2023-03-26T04:32:58.660Z,13.27
2023-03-26T04:37:02.528Z,9.23
2023-03-26T04:41:07.472Z,12.03
2023-03-26T04:45:10.896Z,13.10
2023-03-26T04:49:12.290Z,11.53
2023-03-26T04:53:19.179Z,12.37
2023-03-26T04:57:37.113Z,11.70
2023-03-26T05:01:40.099Z,11.97
2023-03-26T05:05:41.617Z,8.87
2023-03-26T05:09:42.919Z,10.60
2023-03-26T05:13:44.283Z,10.17
2023-03-26T05:17:46.640Z,12.90
2023-03-26T05:21:48.228Z,11.23
2023-03-26T05:25:49.684Z,12.30
2023-03-26T05:29:51.234Z,11.13
2023-03-26T05:33:53.003Z,8.43
2023-03-26T05:37:54.493Z,10.57
2023-03-26T05:41:56.313Z,12.83
2023-03-26T05:45:57.698Z,9.97
2023-03-26T05:49:59.300Z,13.80
2023-03-26T05:54:00.986Z,14.03
2023-03-26T05:58:02.769Z,14.97
2023-03-26T06:02:04.189Z,16.10
2023-03-26T06:06:11.823Z,18.00
2023-03-26T06:10:18.018Z,17.53
2023-03-26T06:14:19.966Z,16.47
2023-03-26T06:18:22.867Z,14.87
2023-03-26T06:22:24.386Z,14.50
2023-03-26T06:26:25.875Z,17.00
2023-03-26T06:30:27.279Z,19.03
2023-03-26T06:34:28.671Z,19.13
2023-03-26T06:38:30.220Z,19.93
2023-03-26T06:43:06.722Z,14.63
2023-03-26T06:46:52.894Z,14.57
2023-03-26T06:50:54.856Z,17.33
2023-03-26T06:54:56.633Z,17.70
2023-03-26T06:58:58.246Z,17.93
2023-03-26T07:02:59.621Z,17.37
2023-03-26T07:07:01.122Z,13.63
2023-03-26T07:11:02.641Z,17.10
2023-03-26T07:15:04.622Z,16.23
2023-03-26T07:19:06.061Z,16.53
2023-03-26T07:23:07.958Z,20.37
2023-03-26T07:27:37.505Z,17.60
2023-03-26T07:31:52.333Z,14.07
2023-03-26T07:36:11.733Z,12.60
2023-03-26T07:40:50.900Z,19.43
2023-03-26T07:45:15.781Z,17.20
2023-03-26T07:49:17.782Z,11.93
2023-03-26T07:53:20.021Z,16.67
2023-03-26T07:57:39.819Z,19.80
2023-03-26T08:01:44.218Z,23.60
2023-03-26T08:05:52.095Z,18.77
2023-03-26T08:10:10.460Z,14.77
2023-03-26T08:14:21.811Z,21.60
2023-03-26T08:18:48.596Z,16.83
2023-03-26T08:22:57.277Z,16.07
2023-03-26T08:27:37.767Z,17.27
2023-03-26T08:31:43.651Z,18.43
2023-03-26T08:35:46.045Z,15.80
2023-03-26T08:39:47.452Z,18.37
2023-03-26T08:44:00.877Z,14.50
2023-03-26T08:48:23.705Z,16.23
2023-03-26T08:52:34.292Z,17.97
2023-03-26T08:56:46.206Z,16.57
2023-03-26T09:01:02.527Z,19.00
2023-03-26T09:05:34.521Z,15.63
2023-03-26T09:10:09.061Z,12.23
2023-03-26T09:14:35.738Z,9.10
2023-03-26T09:18:42.716Z,12.57
2023-03-26T09:23:13.954Z,11.43
2023-03-26T09:27:35.829Z,5.33
2023-03-26T09:31:59.619Z,7.77
2023-03-26T09:36:19.557Z,8.03
2023-03-26T09:40:36.807Z,5.87
2023-03-26T09:44:59.659Z,6.13
2023-03-26T09:49:27.544Z,10.03
2023-03-26T09:54:07.602Z,8.83
2023-03-26T09:58:41.281Z,5.97
2023-03-26T10:03:07.698Z,7.33
2023-03-26T10:07:36.593Z,6.57
2023-03-26T10:12:00.943Z,8.60
2023-03-26T10:16:26.233Z,6.13
2023-03-26T10:20:37.743Z,6.47
2023-03-26T10:24:45.836Z,5.97
2023-03-26T10:29:13.913Z,6.80
2023-03-26T10:37:37.529Z,7.73
2023-03-26T10:41:53.974Z,5.60
2023-03-26T10:46:23.806Z,8.20
2023-03-26T10:50:49.882Z,4.57
2023-03-26T10:55:14.152Z,7.53
2023-03-26T10:59:17.615Z,4.20
2023-03-26T11:03:31.522Z,4.07
2023-03-26T11:07:52.321Z,6.83
2023-03-26T11:11:56.722Z,4.93
2023-03-26T11:16:05.358Z,5.20
2023-03-26T11:20:16.836Z,5.90
2023-03-26T11:24:36.466Z,6.70
2023-03-26T11:29:03.474Z,4.83
2023-03-26T11:33:16.844Z,6.70
2023-03-26T11:37:38.561Z,5.53
2023-03-26T11:41:39.854Z,4.10
2023-03-26T11:45:46.510Z,6.97
2023-03-26T11:49:51.786Z,4.13
2023-03-26T11:53:54.426Z,5.13
2023-03-26T11:57:59.223Z,6.20
2023-03-26T12:02:09.842Z,5.93
2023-03-26T12:06:32.867Z,6.30
2023-03-26T12:10:38.748Z,5.33
2023-03-26T12:14:42.460Z,5.73
2023-03-26T12:18:45.630Z,3.73
2023-03-26T12:22:47.953Z,4.40
2023-03-26T12:26:57.878Z,5.70
2023-03-26T12:31:03.196Z,3.97
2023-03-26T12:35:07.500Z,6.43
2023-03-26T12:40:10.632Z,6.73
2023-03-26T12:44:50.184Z,5.87
2023-03-26T12:48:17.074Z,6.17
2023-03-26T12:52:33.246Z,5.23
2023-03-26T12:57:12.250Z,5.70
2023-03-26T13:01:33.156Z,5.00
2023-03-26T13:05:50.863Z,4.10
2023-03-26T13:10:10.454Z,4.93
2023-03-26T13:14:14.800Z,5.33
2023-03-26T13:18:21.897Z,5.30
2023-03-26T13:22:56.326Z,3.90
2023-03-26T13:27:06.767Z,4.00
2023-03-26T13:31:21.822Z,4.20
2023-03-26T13:35:42.138Z,4.63
2023-03-26T13:40:22.184Z,6.33
2023-03-26T13:45:04.532Z,5.10
2023-03-26T13:49:13.901Z,4.13
2023-03-26T13:53:24.222Z,6.30
2023-03-26T13:57:33.372Z,6.13
2023-03-26T14:01:41.161Z,6.07
2023-03-26T14:05:47.068Z,5.10
2023-03-26T14:10:01.444Z,4.70
2023-03-26T14:14:12.044Z,4.30
2023-03-26T14:18:38.148Z,5.57
2023-03-26T14:23:00.920Z,4.47
2023-03-26T14:27:15.546Z,3.73
2023-03-26T14:31:20.561Z,4.20
2023-03-26T14:35:34.935Z,4.37
2023-03-26T14:39:42.127Z,3.63
2023-03-26T14:44:03.461Z,4.07
2023-03-26T14:48:23.013Z,3.33
2023-03-26T14:53:01.138Z,3.03
2023-03-26T14:57:25.125Z,4.90
2023-03-26T15:01:29.539Z,2.37
2023-03-26T15:05:46.587Z,3.53
2023-03-26T15:10:15.471Z,3.20
2023-03-26T15:14:38.474Z,2.07
2023-03-26T15:19:08.196Z,1.90
2023-03-26T15:23:26.980Z,2.30
2023-03-26T15:27:50.404Z,2.30
2023-03-26T15:32:04.983Z,2.20
2023-03-26T15:36:44.661Z,1.87
2023-03-26T15:41:13.735Z,2.20
2023-03-26T15:45:38.718Z,2.10
2023-03-26T15:50:13.965Z,2.20
2023-03-26T15:54:31.566Z,2.50
2023-03-26T15:59:20.571Z,2.50
2023-03-26T16:03:34.344Z,2.40
2023-03-26T16:08:15.732Z,2.37
2023-03-26T16:12:17.113Z,2.80
2023-03-26T16:16:24.163Z,2.20
2023-03-26T16:20:34.972Z,2.00
2023-03-26T16:24:44.433Z,2.60
2023-03-26T16:28:45.753Z,2.23
2023-03-26T16:33:18.772Z,2.37
2023-03-26T16:37:37.274Z,2.50
2023-03-26T16:41:38.522Z,2.17
2023-03-26T16:45:45.868Z,2.97
2023-03-26T16:50:07.409Z,2.87
2023-03-26T16:54:41.034Z,2.50
2023-03-26T16:58:56.215Z,3.23
2023-03-26T17:03:28.124Z,2.80
2023-03-26T17:07:38.814Z,3.10
2023-03-26T17:11:50.832Z,3.23
2023-03-26T17:16:12.533Z,4.10
2023-03-26T17:20:33.314Z,4.07
2023-03-26T17:24:53.562Z,4.20
2023-03-26T17:29:09.819Z,3.73
2023-03-26T17:33:23.145Z,4.77
2023-03-26T17:37:26.360Z,3.40
2023-03-26T17:41:51.200Z,3.50
2023-03-26T17:46:02.668Z,3.93
2023-03-26T17:50:13.652Z,4.57
2023-03-26T17:54:22.506Z,3.70
2023-03-26T17:58:23.975Z,4.00
2023-03-26T18:02:34.379Z,4.87
2023-03-26T18:06:49.636Z,5.20
2023-03-26T18:11:03.075Z,5.23
2023-03-26T18:15:22.489Z,5.20
2023-03-26T18:19:24.992Z,7.93
2023-03-26T18:23:36.638Z,11.53
2023-03-26T18:27:40.833Z,13.70
2023-03-26T18:31:42.971Z,12.87
2023-03-26T18:35:54.328Z,15.70
2023-03-26T18:39:59.071Z,12.13
2023-03-26T18:44:05.698Z,12.13
2023-03-26T18:48:17.727Z,11.67
2023-03-26T18:52:20.777Z,17.70
2023-03-26T18:56:36.141Z,14.10
2023-03-26T19:00:40.086Z,12.33
2023-03-26T19:04:46.062Z,15.07
2023-03-26T19:08:48.770Z,14.53
2023-03-26T19:12:58.421Z,15.70
2023-03-26T19:17:02.579Z,17.73
2023-03-26T19:21:04.551Z,22.53
2023-03-26T19:25:16.519Z,16.13
2023-03-26T19:29:26.088Z,18.20
2023-03-26T19:33:34.972Z,14.57
2023-03-26T19:37:50.255Z,10.53
2023-03-26T19:41:52.812Z,12.47
2023-03-26T19:45:59.989Z,13.83
2023-03-26T19:50:26.242Z,15.00
2023-03-26T19:54:30.418Z,13.47
2023-03-26T19:58:33.141Z,14.27
2023-03-26T20:02:34.637Z,13.17
2023-03-26T20:06:43.295Z,19.50
2023-03-26T20:10:45.639Z,10.87
2023-03-26T20:14:48.338Z,13.00
2023-03-26T20:18:50.659Z,10.43
2023-03-26T20:22:55.214Z,14.77
2023-03-26T20:26:56.642Z,12.37
2023-03-26T20:30:58.172Z,10.60
2023-03-26T20:34:59.740Z,10.40
2023-03-26T20:39:03.222Z,10.57
2023-03-26T20:43:09.649Z,12.77
2023-03-26T20:47:11.464Z,12.30
2023-03-26T20:51:14.829Z,14.47
2023-03-26T20:55:22.223Z,8.97
2023-03-26T20:59:28.785Z,12.80
2023-03-26T21:03:41.496Z,9.27
2023-03-26T21:07:49.395Z,13.47
2023-03-26T21:12:24.838Z,8.10
2023-03-26T21:16:29.997Z,12.33
2023-03-26T21:25:20.749Z,9.40
2023-03-26T21:29:26.162Z,14.60
2023-03-26T21:33:28.391Z,9.67
2023-03-26T21:37:30.947Z,12.73
2023-03-26T21:41:41.296Z,12.90
2023-03-26T21:45:43.768Z,9.60
2023-03-26T21:49:45.505Z,9.70
2023-03-26T21:53:47.425Z,10.83
2023-03-26T21:58:13.582Z,12.63
2023-03-26T22:02:27.065Z,12.40
2023-03-26T22:07:04.205Z,12.03
2023-03-26T22:11:07.257Z,12.30
2023-03-26T22:15:09.033Z,14.13
2023-03-26T22:19:12.447Z,12.77
2023-03-26T22:23:14.589Z,9.57
2023-03-26T22:27:16.019Z,12.87
2023-03-26T22:31:17.597Z,12.27
2023-03-26T22:35:19.925Z,9.00
2023-03-26T22:39:21.505Z,11.30
2023-03-26T22:43:24.620Z,7.60
2023-03-26T22:47:25.928Z,9.23
2023-03-26T22:51:34.398Z,12.73
2023-03-26T22:55:59.138Z,8.80
2023-03-26T23:00:12.270Z,7.93
2023-03-26T23:08:54.709Z,13.37
2023-03-26T23:12:56.176Z,11.53
2023-03-26T23:16:58.296Z,9.53
2023-03-26T23:21:00.037Z,9.73
2023-03-26T23:25:01.925Z,11.40
2023-03-26T23:29:04.890Z,12.27
2023-03-26T23:33:06.410Z,14.80
2023-03-26T23:37:10.906Z,10.07
2023-03-26T23:41:16.464Z,14.63
2023-03-26T23:45:17.749Z,9.67
2023-03-26T23:49:19.356Z,12.77
2023-03-26T23:53:24.304Z,11.27
2023-03-26T23:57:27.942Z,8.73
